createdAt,value
2023-02-25T00:00:30.748Z,7.95
2023-02-25T00:01:33.578Z,8.77
2023-02-25T00:02:36.048Z,8.60
2023-02-25T00:03:39.012Z,8.63
2023-02-25T00:04:44.429Z,8.70
2023-02-25T00:05:48.234Z,9.10
2023-02-25T00:06:55.629Z,7.40
2023-02-25T00:07:58.614Z,9.40
2023-02-25T00:09:01.171Z,8.07
2023-02-25T00:10:04.006Z,8.85
2023-02-25T00:11:07.535Z,9.48
2023-02-25T00:12:10.436Z,8.75
2023-02-25T00:13:18.312Z,8.27
2023-02-25T00:14:21.238Z,8.00
2023-02-25T00:15:24.606Z,7.97
2023-02-25T00:16:28.462Z,8.93
2023-02-25T00:17:32.431Z,8.00
2023-02-25T00:18:36.114Z,8.07
2023-02-25T00:19:39.702Z,8.80
2023-02-25T00:20:42.587Z,9.13
2023-02-25T00:21:45.000Z,8.65
2023-02-25T00:22:47.796Z,8.10
2023-02-25T00:23:51.325Z,6.30
2023-02-25T00:24:57.590Z,8.23
2023-02-25T00:26:00.391Z,7.80
2023-02-25T00:27:03.545Z,7.57
2023-02-25T00:28:06.542Z,8.13
2023-02-25T00:29:09.076Z,9.70
2023-02-25T00:30:13.778Z,8.00
2023-02-25T00:31:18.178Z,8.77
2023-02-25T00:32:21.480Z,7.85
2023-02-25T00:33:24.802Z,7.40
2023-02-25T00:34:28.710Z,8.48
2023-02-25T00:35:32.379Z,8.07
2023-02-25T00:36:35.111Z,7.07
2023-02-25T00:37:37.516Z,7.47
2023-02-25T00:38:40.773Z,7.70
2023-02-25T00:39:43.990Z,7.95
2023-02-25T00:40:46.731Z,9.38
2023-02-25T00:41:49.102Z,8.43
2023-02-25T00:42:51.814Z,9.27
2023-02-25T00:43:55.674Z,8.57
2023-02-25T00:44:58.095Z,9.80
2023-02-25T00:46:00.565Z,8.80
2023-02-25T00:47:03.782Z,8.70
2023-02-25T00:48:06.492Z,7.90
2023-02-25T00:49:15.043Z,8.45
2023-02-25T00:50:21.225Z,9.50
2023-02-25T00:51:24.852Z,8.65
2023-02-25T00:52:27.352Z,9.48
2023-02-25T00:53:29.740Z,8.75
2023-02-25T00:54:33.528Z,9.65
2023-02-25T00:55:36.395Z,10.32
2023-02-25T00:56:39.151Z,9.70
2023-02-25T00:57:43.308Z,10.20
2023-02-25T00:58:46.762Z,11.37
2023-02-25T00:59:49.918Z,11.32
2023-02-25T01:00:52.540Z,10.18
2023-02-25T01:01:55.234Z,9.63
2023-02-25T01:02:57.956Z,10.15
2023-02-25T01:04:00.764Z,9.60
2023-02-25T01:05:03.903Z,10.13
2023-02-25T01:06:08.277Z,8.93
2023-02-25T01:07:11.863Z,10.02
2023-02-25T01:08:14.335Z,10.30
2023-02-25T01:09:16.742Z,9.27
2023-02-25T01:10:19.914Z,9.75
2023-02-25T01:11:27.876Z,10.10
2023-02-25T01:12:30.523Z,9.68
2023-02-25T01:13:32.988Z,9.77
2023-02-25T01:14:35.473Z,9.32
2023-02-25T01:15:39.238Z,9.05
2023-02-25T01:16:42.045Z,11.10
2023-02-25T01:17:44.544Z,10.20
2023-02-25T01:18:47.824Z,10.17
2023-02-25T01:19:50.209Z,8.50
2023-02-25T01:20:52.892Z,9.13
2023-02-25T01:21:56.930Z,11.20
2023-02-25T01:22:59.478Z,9.60
2023-02-25T01:24:03.546Z,9.90
2023-02-25T01:25:06.641Z,10.15
2023-02-25T01:26:13.438Z,9.48
2023-02-25T01:27:16.136Z,9.85
2023-02-25T01:28:18.660Z,9.48
2023-02-25T01:29:22.945Z,9.90
2023-02-25T01:30:25.465Z,10.27
2023-02-25T01:31:31.646Z,9.20
2023-02-25T01:32:34.386Z,8.25
2023-02-25T01:33:40.208Z,10.93
2023-02-25T01:34:42.593Z,10.45
2023-02-25T01:35:44.988Z,10.50
2023-02-25T01:36:48.114Z,9.88
2023-02-25T01:37:50.722Z,10.57
2023-02-25T01:38:53.146Z,9.13
2023-02-25T01:39:56.029Z,8.97
2023-02-25T01:40:59.337Z,8.53
2023-02-25T01:42:03.747Z,10.55
2023-02-25T01:43:12.852Z,9.27
2023-02-25T01:44:15.194Z,9.13
2023-02-25T01:45:20.273Z,9.82
2023-02-25T01:46:23.010Z,9.68
2023-02-25T01:47:28.273Z,10.20
2023-02-25T01:48:32.488Z,8.57
2023-02-25T01:49:41.353Z,8.10
2023-02-25T01:50:47.132Z,10.17
2023-02-25T01:51:51.908Z,10.17
2023-02-25T01:52:57.121Z,9.18
2023-02-25T01:54:02.802Z,8.45
2023-02-25T01:55:05.576Z,8.90
2023-02-25T01:56:11.851Z,9.45
2023-02-25T01:57:15.886Z,9.43
2023-02-25T01:58:19.935Z,8.68
2023-02-25T01:59:23.895Z,9.40
2023-02-25T02:00:28.724Z,10.43
2023-02-25T02:01:34.017Z,9.33
2023-02-25T02:02:36.818Z,9.00
2023-02-25T02:03:41.448Z,9.05
2023-02-25T02:04:44.915Z,9.93
2023-02-25T02:06:10.605Z,9.43
2023-02-25T02:07:14.576Z,8.73
2023-02-25T02:08:17.465Z,8.20
2023-02-25T02:09:21.644Z,9.40
2023-02-25T02:10:24.061Z,11.10
2023-02-25T02:11:29.755Z,9.63
2023-02-25T02:12:34.206Z,9.70
2023-02-25T02:13:39.558Z,9.07
2023-02-25T02:14:42.371Z,9.70
2023-02-25T02:16:10.981Z,9.70
2023-02-25T02:17:32.353Z,10.02
2023-02-25T02:18:37.915Z,10.05
2023-02-25T02:19:52.313Z,8.90
2023-02-25T02:21:10.204Z,9.70
2023-02-25T02:22:30.941Z,10.45
2023-02-25T02:23:52.533Z,8.55
2023-02-25T02:25:05.348Z,9.37
2023-02-25T02:26:07.863Z,9.93
2023-02-25T02:27:11.862Z,9.10
2023-02-25T02:28:20.179Z,10.07
2023-02-25T02:29:23.018Z,10.77
2023-02-25T02:30:39.247Z,9.35
2023-02-25T02:31:41.823Z,9.00
2023-02-25T02:32:51.540Z,9.52
2023-02-25T02:34:12.314Z,9.50
2023-02-25T02:35:17.757Z,9.70
2023-02-25T02:36:26.001Z,9.47
2023-02-25T02:37:38.837Z,9.77
2023-02-25T02:38:57.421Z,9.50
2023-02-25T02:40:09.653Z,10.13
2023-02-25T02:41:41.937Z,9.35
2023-02-25T02:42:52.301Z,9.60
2023-02-25T02:44:02.515Z,9.70
2023-02-25T02:45:19.514Z,10.35
2023-02-25T02:46:28.232Z,9.52
2023-02-25T02:47:35.384Z,10.85
2023-02-25T02:48:47.494Z,11.13
2023-02-25T02:49:54.005Z,10.47
2023-02-25T02:50:58.955Z,9.57
2023-02-25T02:52:08.555Z,11.57
2023-02-25T02:53:16.875Z,11.50
2023-02-25T02:54:19.446Z,9.32
2023-02-25T02:55:24.445Z,10.45
2023-02-25T02:56:28.517Z,10.73
2023-02-25T02:57:33.018Z,10.73
2023-02-25T02:58:38.796Z,9.75
2023-02-25T02:59:47.577Z,10.13
2023-02-25T03:00:55.833Z,10.47
2023-02-25T03:02:12.464Z,11.40
2023-02-25T03:03:18.003Z,11.12
2023-02-25T03:04:23.531Z,11.80
2023-02-25T03:05:28.338Z,10.20
2023-02-25T03:06:33.496Z,9.82
2023-02-25T03:07:38.292Z,10.65
2023-02-25T03:08:44.938Z,10.60
2023-02-25T03:09:50.883Z,11.68
2023-02-25T03:10:53.527Z,10.60
2023-02-25T03:11:56.916Z,11.03
2023-02-25T03:12:59.386Z,10.02
2023-02-25T03:14:02.874Z,11.23
2023-02-25T03:15:06.245Z,12.57
2023-02-25T03:16:10.436Z,12.10
2023-02-25T03:17:27.693Z,10.45
2023-02-25T03:18:39.366Z,11.68
2023-02-25T03:19:45.164Z,10.63
2023-02-25T03:20:49.608Z,11.38
2023-02-25T03:21:57.981Z,10.30
2023-02-25T03:23:02.618Z,12.43
2023-02-25T03:24:05.984Z,12.27
2023-02-25T03:25:13.405Z,10.48
2023-02-25T03:26:30.254Z,10.40
2023-02-25T03:27:35.486Z,11.38
2023-02-25T03:28:38.678Z,9.57
2023-02-25T03:29:42.956Z,11.12
2023-02-25T03:30:52.495Z,10.45
2023-02-25T03:31:57.897Z,10.18
2023-02-25T03:33:06.786Z,11.40
2023-02-25T03:34:15.379Z,10.63
2023-02-25T03:35:18.793Z,8.63
2023-02-25T03:36:41.839Z,11.27
2023-02-25T03:37:48.214Z,11.48
2023-02-25T03:38:52.097Z,10.00
2023-02-25T03:39:56.856Z,10.50
2023-02-25T03:41:01.244Z,12.18
2023-02-25T03:42:05.843Z,11.32
2023-02-25T03:43:30.643Z,10.30
2023-02-25T03:44:35.883Z,10.23
2023-02-25T03:45:40.748Z,11.70
2023-02-25T03:46:44.077Z,11.00
2023-02-25T03:47:47.324Z,10.60
2023-02-25T03:48:51.290Z,11.25
2023-02-25T03:50:18.607Z,9.75
2023-02-25T03:51:29.089Z,10.05
2023-02-25T03:52:31.737Z,10.38
2023-02-25T03:53:35.613Z,11.50
2023-02-25T03:54:38.795Z,11.43
2023-02-25T03:55:41.287Z,10.83
2023-02-25T03:56:44.922Z,10.63
2023-02-25T03:57:49.250Z,9.15
2023-02-25T03:58:52.315Z,11.32
2023-02-25T03:59:56.565Z,10.13
2023-02-25T04:01:02.690Z,10.68
2023-02-25T04:02:06.042Z,11.27
2023-02-25T04:03:08.741Z,10.10
2023-02-25T04:04:11.767Z,9.43
2023-02-25T04:05:15.402Z,11.82
2023-02-25T04:06:21.979Z,10.63
2023-02-25T04:07:26.243Z,9.20
2023-02-25T04:08:29.740Z,9.93
2023-02-25T04:09:32.480Z,10.50
2023-02-25T04:10:35.094Z,9.30
2023-02-25T04:11:37.552Z,10.13
2023-02-25T04:12:41.856Z,10.82
2023-02-25T04:13:44.631Z,10.48
2023-02-25T04:14:47.070Z,11.43
2023-02-25T04:15:50.331Z,13.95
2023-02-25T04:16:52.957Z,10.77
2023-02-25T04:17:55.842Z,13.23
2023-02-25T04:18:59.350Z,11.10
2023-02-25T04:20:01.974Z,11.82
2023-02-25T04:21:05.996Z,11.30
2023-02-25T04:22:08.469Z,11.95
2023-02-25T04:23:14.703Z,11.38
2023-02-25T04:24:17.166Z,11.48
2023-02-25T04:25:19.632Z,10.65
2023-02-25T04:26:22.322Z,11.60
2023-02-25T04:27:26.513Z,11.87
2023-02-25T04:28:29.313Z,11.30
2023-02-25T04:29:31.816Z,11.45
2023-02-25T04:30:34.654Z,9.45
2023-02-25T04:31:37.204Z,11.32
2023-02-25T04:32:39.727Z,10.82
2023-02-25T04:33:42.474Z,12.45
2023-02-25T04:34:44.878Z,11.48
2023-02-25T04:35:47.253Z,11.48
2023-02-25T04:36:49.714Z,11.25
2023-02-25T04:37:52.085Z,11.23
2023-02-25T04:38:55.378Z,12.07
2023-02-25T04:39:57.997Z,12.48
2023-02-25T04:41:00.522Z,10.73
2023-02-25T04:42:03.104Z,12.45
2023-02-25T04:43:05.551Z,11.80
2023-02-25T04:44:08.951Z,11.27
2023-02-25T04:45:11.748Z,10.93
2023-02-25T04:46:14.220Z,10.68
2023-02-25T04:47:16.625Z,10.90
2023-02-25T04:48:24.332Z,11.70
2023-02-25T04:49:27.197Z,12.30
2023-02-25T04:50:29.676Z,9.70
2023-02-25T04:51:32.748Z,12.05
2023-02-25T04:52:35.552Z,12.13
2023-02-25T04:53:37.984Z,12.40
2023-02-25T04:54:40.887Z,13.05
2023-02-25T04:55:43.754Z,11.55
2023-02-25T04:56:46.535Z,10.95
2023-02-25T04:57:49.075Z,12.18
2023-02-25T04:58:51.618Z,8.80
2023-02-25T04:59:54.446Z,11.43
2023-02-25T05:00:58.920Z,12.25
2023-02-25T05:02:01.900Z,12.23
2023-02-25T05:03:04.349Z,12.37
2023-02-25T05:04:06.859Z,13.45
2023-02-25T05:05:10.289Z,11.63
2023-02-25T05:06:13.111Z,12.93
2023-02-25T05:07:15.783Z,11.65
2023-02-25T05:08:21.098Z,12.98
2023-02-25T05:09:23.643Z,12.43
2023-02-25T05:10:26.433Z,12.37
2023-02-25T05:11:29.132Z,11.57
2023-02-25T05:12:31.545Z,11.00
2023-02-25T05:13:34.142Z,11.40
2023-02-25T05:14:37.268Z,12.10
2023-02-25T05:15:40.000Z,12.05
2023-02-25T05:16:42.491Z,11.55
2023-02-25T05:17:45.077Z,13.75
2023-02-25T05:18:48.167Z,10.90
2023-02-25T05:19:50.609Z,11.27
2023-02-25T05:20:54.212Z,12.23
2023-02-25T05:21:56.697Z,11.88
2023-02-25T05:22:59.821Z,12.50
2023-02-25T05:24:02.397Z,12.75
2023-02-25T05:25:05.527Z,11.43
2023-02-25T05:26:08.860Z,10.80
2023-02-25T05:27:11.561Z,15.55
2023-02-25T05:28:14.249Z,14.23
2023-02-25T05:29:17.338Z,14.77
2023-02-25T05:30:19.965Z,13.40
2023-02-25T05:31:24.931Z,12.37
2023-02-25T05:32:27.825Z,12.70
2023-02-25T05:33:30.300Z,12.45
2023-02-25T05:34:32.667Z,12.82
2023-02-25T05:35:35.357Z,13.35
2023-02-25T05:36:38.318Z,11.68
2023-02-25T05:37:41.150Z,12.07
2023-02-25T05:38:44.343Z,13.05
2023-02-25T05:39:46.745Z,13.10
2023-02-25T05:40:49.404Z,13.93
2023-02-25T05:41:52.273Z,15.43
2023-02-25T05:42:54.749Z,16.05
2023-02-25T05:43:58.432Z,13.07
2023-02-25T05:45:00.948Z,12.77
2023-02-25T05:46:04.932Z,11.75
2023-02-25T05:47:07.875Z,11.70
2023-02-25T05:48:10.413Z,12.43
2023-02-25T05:49:12.868Z,11.55
2023-02-25T05:50:15.474Z,9.85
2023-02-25T05:51:20.013Z,11.37
2023-02-25T05:52:23.096Z,9.30
2023-02-25T05:53:25.595Z,10.25
2023-02-25T05:54:28.124Z,9.75
2023-02-25T05:55:30.478Z,11.68
2023-02-25T05:56:32.953Z,10.98
2023-02-25T05:57:35.793Z,10.32
2023-02-25T05:58:38.878Z,11.35
2023-02-25T05:59:41.358Z,10.35
2023-02-25T06:00:44.030Z,11.48
2023-02-25T06:01:47.242Z,9.73
2023-02-25T06:02:49.734Z,10.03
2023-02-25T06:03:52.510Z,10.02
2023-02-25T06:04:55.022Z,9.30
2023-02-25T06:05:57.449Z,10.68
2023-02-25T06:07:00.695Z,9.95
2023-02-25T06:08:03.210Z,10.20
2023-02-25T06:09:09.535Z,11.20
2023-02-25T06:10:12.245Z,14.00
2023-02-25T06:11:18.067Z,15.93
2023-02-25T06:12:20.812Z,10.47
2023-02-25T06:13:23.359Z,10.47
2023-02-25T06:14:25.797Z,10.43
2023-02-25T06:15:28.687Z,11.75
2023-02-25T06:16:32.849Z,10.55
2023-02-25T06:17:36.276Z,10.90
2023-02-25T06:18:39.910Z,11.95
2023-02-25T06:19:42.554Z,14.23
2023-02-25T06:20:45.269Z,13.55
2023-02-25T06:21:48.051Z,15.52
2023-02-25T06:22:51.477Z,15.40
2023-02-25T06:23:54.053Z,23.70
2023-02-25T06:24:57.112Z,13.60
2023-02-25T06:26:00.281Z,22.02
2023-02-25T06:27:03.226Z,26.75
2023-02-25T06:28:06.055Z,26.42
2023-02-25T06:29:09.811Z,18.30
2023-02-25T06:30:12.557Z,32.88
2023-02-25T06:31:19.178Z,15.77
2023-02-25T06:32:21.796Z,12.15
2023-02-25T06:33:24.796Z,12.20
2023-02-25T06:34:33.045Z,13.63
2023-02-25T06:35:36.190Z,10.82
2023-02-25T06:36:38.895Z,14.63
2023-02-25T06:37:41.786Z,18.20
2023-02-25T06:38:46.145Z,11.23
2023-02-25T06:39:48.840Z,26.08
2023-02-25T06:40:51.633Z,12.18
2023-02-25T06:41:54.113Z,12.35
2023-02-25T06:42:56.577Z,13.32
2023-02-25T06:43:59.882Z,11.67
2023-02-25T06:45:02.518Z,11.90
2023-02-25T06:46:09.517Z,11.45
2023-02-25T06:47:12.061Z,11.00
2023-02-25T06:48:14.693Z,10.32
2023-02-25T06:49:17.993Z,11.05
2023-02-25T06:50:20.509Z,11.15
2023-02-25T06:51:23.343Z,11.80
2023-02-25T06:52:25.984Z,11.90
2023-02-25T06:53:28.977Z,10.70
2023-02-25T06:54:31.720Z,12.17
2023-02-25T06:55:34.329Z,18.03
2023-02-25T06:56:36.856Z,20.40
2023-02-25T06:57:39.551Z,10.65
2023-02-25T06:58:42.572Z,11.20
2023-02-25T06:59:46.043Z,11.18
2023-02-25T07:00:48.602Z,11.43
2023-02-25T07:01:51.470Z,10.98
2023-02-25T07:02:53.908Z,13.15
2023-02-25T07:03:56.753Z,12.70
2023-02-25T07:05:01.391Z,12.47
2023-02-25T07:06:04.322Z,15.10
2023-02-25T07:07:07.598Z,14.43
2023-02-25T07:08:10.694Z,12.73
2023-02-25T07:09:13.711Z,13.70
2023-02-25T07:10:17.089Z,12.05
2023-02-25T07:11:20.383Z,12.07
2023-02-25T07:12:23.365Z,12.13
2023-02-25T07:13:26.326Z,12.07
2023-02-25T07:14:31.939Z,11.88
2023-02-25T07:15:34.701Z,13.17
2023-02-25T07:16:37.205Z,13.73
2023-02-25T07:17:39.570Z,13.27
2023-02-25T07:18:42.588Z,12.00
2023-02-25T07:19:45.573Z,15.52
2023-02-25T07:20:48.326Z,14.10
2023-02-25T07:21:50.702Z,10.43
2023-02-25T07:22:53.209Z,13.80
2023-02-25T07:23:55.652Z,11.38
2023-02-25T07:24:58.274Z,10.02
2023-02-25T07:26:08.067Z,9.37
2023-02-25T07:27:10.486Z,11.67
2023-02-25T07:28:13.404Z,10.18
2023-02-25T07:29:15.806Z,7.30
2023-02-25T07:30:18.560Z,8.77
2023-02-25T07:31:22.533Z,9.38
2023-02-25T07:32:25.569Z,8.27
2023-02-25T07:33:31.423Z,9.68
2023-02-25T07:34:33.800Z,9.52
2023-02-25T07:35:36.212Z,11.88
2023-02-25T07:36:38.935Z,11.83
2023-02-25T07:37:41.429Z,10.17
2023-02-25T07:38:44.442Z,10.15
2023-02-25T07:39:47.758Z,12.90
2023-02-25T07:40:50.449Z,15.43
2023-02-25T07:41:53.608Z,15.00
2023-02-25T07:42:56.051Z,14.52
2023-02-25T07:43:59.589Z,16.23
2023-02-25T07:45:02.409Z,14.65
2023-02-25T07:46:05.211Z,14.95
2023-02-25T07:47:08.049Z,16.83
2023-02-25T07:48:10.906Z,14.93
2023-02-25T07:49:13.420Z,12.77
2023-02-25T07:50:15.946Z,10.18
2023-02-25T07:51:20.193Z,14.05
2023-02-25T07:52:25.402Z,11.70
2023-02-25T07:53:28.167Z,11.82
2023-02-25T07:54:30.597Z,9.75
2023-02-25T07:55:33.057Z,12.70
2023-02-25T07:56:35.451Z,11.23
2023-02-25T07:57:38.192Z,11.60
2023-02-25T07:58:40.887Z,14.73
2023-02-25T07:59:43.334Z,12.30
2023-02-25T08:00:46.339Z,10.70
2023-02-25T08:01:49.177Z,11.27
2023-02-25T08:02:51.686Z,11.45
2023-02-25T08:03:55.975Z,9.85
2023-02-25T08:04:58.422Z,8.10
2023-02-25T08:06:02.964Z,9.30
2023-02-25T08:07:05.975Z,9.32
2023-02-25T08:08:08.469Z,8.17
2023-02-25T08:09:12.486Z,7.90
2023-02-25T08:10:15.988Z,9.43
2023-02-25T08:11:19.505Z,8.20
2023-02-25T08:12:22.426Z,9.68
2023-02-25T08:13:24.931Z,9.07
2023-02-25T08:14:27.422Z,12.10
2023-02-25T08:15:29.859Z,11.00
2023-02-25T08:16:33.268Z,14.23
2023-02-25T08:17:35.969Z,10.30
2023-02-25T08:18:39.292Z,8.00
2023-02-25T08:19:42.092Z,7.93
2023-02-25T08:20:46.380Z,10.18
2023-02-25T08:21:48.774Z,9.07
2023-02-25T08:22:51.775Z,8.73
2023-02-25T08:23:54.490Z,8.90
2023-02-25T08:24:57.080Z,6.72
2023-02-25T08:26:00.127Z,8.30
2023-02-25T08:27:02.604Z,6.20
2023-02-25T08:28:06.690Z,7.30
2023-02-25T08:29:09.192Z,8.10
2023-02-25T08:30:12.390Z,10.87
2023-02-25T08:31:16.149Z,8.98
2023-02-25T08:32:18.982Z,7.32
2023-02-25T08:33:21.765Z,8.02
2023-02-25T08:34:24.194Z,8.00
2023-02-25T08:35:26.849Z,5.87
2023-02-25T08:36:31.297Z,6.22
2023-02-25T08:37:34.085Z,6.22
2023-02-25T08:38:39.700Z,6.32
2023-02-25T08:39:42.634Z,7.90
2023-02-25T08:40:45.720Z,8.97
2023-02-25T08:41:49.276Z,6.93
2023-02-25T08:42:51.750Z,6.57
2023-02-25T08:43:55.535Z,9.10
2023-02-25T08:44:58.012Z,7.85
2023-02-25T08:46:01.603Z,7.37
2023-02-25T08:47:05.206Z,6.35
2023-02-25T08:48:07.755Z,6.03
2023-02-25T08:49:10.623Z,6.10
2023-02-25T08:50:13.444Z,6.60
2023-02-25T08:51:16.128Z,5.70
2023-02-25T08:52:19.211Z,5.53
2023-02-25T08:53:22.284Z,7.05
2023-02-25T08:54:25.101Z,9.30
2023-02-25T08:55:28.596Z,6.95
2023-02-25T08:56:31.410Z,6.62
2023-02-25T08:57:34.057Z,5.85
2023-02-25T08:58:36.664Z,6.53
2023-02-25T08:59:39.575Z,4.07
2023-02-25T09:00:42.491Z,6.30
2023-02-25T09:01:45.463Z,4.73
2023-02-25T09:02:48.410Z,5.80
2023-02-25T09:03:54.101Z,4.53
2023-02-25T09:04:56.950Z,4.53
2023-02-25T09:05:59.485Z,4.20
2023-02-25T09:07:05.017Z,4.15
2023-02-25T09:08:07.561Z,5.07
2023-02-25T09:09:11.650Z,4.82
2023-02-25T09:10:15.041Z,4.93
2023-02-25T09:11:18.043Z,4.33
2023-02-25T09:12:22.959Z,2.93
2023-02-25T09:13:27.338Z,3.97
2023-02-25T09:14:29.822Z,3.85
2023-02-25T09:15:32.951Z,3.35
2023-02-25T09:16:35.894Z,4.90
2023-02-25T09:17:39.445Z,4.30
2023-02-25T09:18:44.146Z,7.82
2023-02-25T09:19:46.617Z,4.65
2023-02-25T09:20:50.369Z,4.97
2023-02-25T09:21:53.012Z,4.03
2023-02-25T09:22:57.372Z,8.23
2023-02-25T09:24:00.408Z,6.72
2023-02-25T09:25:04.258Z,6.25
2023-02-25T09:26:07.846Z,6.80
2023-02-25T09:27:10.941Z,5.50
2023-02-25T09:28:13.487Z,8.07
2023-02-25T09:29:16.246Z,4.78
2023-02-25T09:30:22.218Z,4.60
2023-02-25T09:31:25.366Z,5.07
2023-02-25T09:32:28.674Z,4.23
2023-02-25T09:33:32.391Z,5.37
2023-02-25T09:34:34.969Z,5.68
2023-02-25T09:35:37.346Z,8.90
2023-02-25T09:36:40.046Z,7.35
2023-02-25T09:37:42.537Z,6.37
2023-02-25T09:38:47.350Z,6.90
2023-02-25T09:39:50.097Z,6.50
2023-02-25T09:40:52.634Z,4.10
2023-02-25T09:41:58.292Z,6.70
2023-02-25T09:43:19.375Z,4.70
2023-02-25T09:44:28.434Z,4.53
2023-02-25T09:45:31.625Z,4.35
2023-02-25T09:46:36.542Z,7.12
2023-02-25T09:47:50.579Z,3.62
2023-02-25T09:48:55.469Z,5.45
2023-02-25T09:50:00.257Z,4.10
2023-02-25T09:51:13.575Z,3.72
2023-02-25T09:52:18.667Z,3.37
2023-02-25T09:53:31.857Z,4.60
2023-02-25T09:54:37.740Z,4.00
2023-02-25T09:55:41.728Z,5.27
2023-02-25T09:56:44.846Z,4.82
2023-02-25T09:57:57.493Z,5.70
2023-02-25T09:59:01.073Z,4.37
2023-02-25T10:00:09.433Z,6.22
2023-02-25T10:01:21.808Z,5.30
2023-02-25T10:02:28.080Z,3.65
2023-02-25T10:03:30.660Z,4.07
2023-02-25T10:04:42.352Z,4.25
2023-02-25T10:05:52.493Z,5.43
2023-02-25T10:06:56.226Z,8.97
2023-02-25T10:07:59.184Z,5.30
2023-02-25T10:09:06.288Z,6.12
2023-02-25T10:10:24.068Z,10.30
2023-02-25T10:11:45.257Z,7.53
2023-02-25T10:12:54.219Z,4.50
2023-02-25T10:14:03.252Z,6.05
2023-02-25T10:15:16.114Z,4.47
2023-02-25T10:16:41.914Z,3.85
2023-02-25T10:17:48.116Z,3.70
2023-02-25T10:18:50.600Z,3.60
2023-02-25T10:20:18.478Z,2.80
2023-02-25T10:21:33.303Z,4.18
2023-02-25T10:22:55.075Z,2.72
2023-02-25T10:24:13.923Z,2.28
2023-02-25T10:25:27.494Z,2.70
2023-02-25T10:26:33.698Z,2.58
2023-02-25T10:27:40.476Z,1.87
2023-02-25T10:28:43.838Z,1.83
2023-02-25T10:29:50.185Z,1.67
2023-02-25T10:31:07.450Z,2.10
2023-02-25T10:32:16.389Z,2.87
2023-02-25T10:33:22.190Z,3.95
2023-02-25T10:34:27.923Z,2.28
2023-02-25T10:35:35.872Z,2.10
2023-02-25T10:36:43.476Z,1.77
2023-02-25T10:37:47.582Z,1.42
2023-02-25T10:38:54.317Z,1.67
2023-02-25T10:39:59.247Z,1.75
2023-02-25T10:41:02.361Z,2.00
2023-02-25T10:42:05.458Z,1.50
2023-02-25T10:43:19.289Z,1.48
2023-02-25T10:44:22.066Z,1.80
2023-02-25T10:45:29.517Z,1.95
2023-02-25T10:46:48.201Z,2.15
2023-02-25T10:47:56.269Z,2.00
2023-02-25T10:49:00.358Z,2.40
2023-02-25T10:50:15.636Z,2.10
2023-02-25T10:51:18.861Z,1.80
2023-02-25T10:52:21.847Z,2.00
2023-02-25T10:53:25.704Z,1.77
2023-02-25T10:54:28.466Z,1.40
2023-02-25T10:55:37.635Z,1.87
2023-02-25T10:56:43.645Z,2.28
2023-02-25T10:57:47.212Z,1.83
2023-02-25T10:59:06.066Z,1.70
2023-02-25T11:00:36.469Z,2.50
2023-02-25T11:01:40.897Z,2.08
2023-02-25T11:02:44.511Z,1.65
2023-02-25T11:03:47.235Z,1.60
2023-02-25T11:04:50.981Z,1.80
2023-02-25T11:06:07.580Z,1.85
2023-02-25T11:07:24.794Z,1.90
2023-02-25T11:08:31.412Z,1.90
2023-02-25T11:09:37.124Z,1.92
2023-02-25T11:10:40.493Z,1.60
2023-02-25T11:11:52.889Z,1.60
2023-02-25T11:12:57.669Z,1.85
2023-02-25T11:14:02.766Z,2.00
2023-02-25T11:15:37.806Z,1.83
2023-02-25T11:16:46.746Z,1.67
2023-02-25T11:17:49.970Z,1.92
2023-02-25T11:18:55.777Z,1.80
2023-02-25T11:20:02.856Z,2.25
2023-02-25T11:21:08.726Z,1.80
2023-02-25T11:22:16.998Z,1.70
2023-02-25T11:23:32.733Z,1.70
2023-02-25T11:24:37.249Z,1.73
2023-02-25T11:25:42.144Z,1.45
2023-02-25T11:26:46.820Z,2.03
2023-02-25T11:27:56.528Z,2.10
2023-02-25T11:29:09.859Z,1.48
2023-02-25T11:30:15.677Z,1.75
2023-02-25T11:31:24.202Z,1.90
2023-02-25T11:32:27.964Z,2.05
2023-02-25T11:33:37.217Z,2.08
2023-02-25T11:34:56.366Z,3.00
2023-02-25T11:36:00.521Z,4.55
2023-02-25T11:37:21.974Z,2.90
2023-02-25T11:38:27.923Z,2.03
2023-02-25T11:39:33.095Z,3.20
2023-02-25T11:40:42.724Z,3.05
2023-02-25T11:41:47.401Z,4.00
2023-02-25T11:43:06.316Z,2.58
2023-02-25T11:44:28.116Z,2.80
2023-02-25T11:45:34.233Z,1.67
2023-02-25T11:46:38.394Z,1.80
2023-02-25T11:47:42.979Z,1.90
2023-02-25T11:48:48.170Z,2.35
2023-02-25T11:49:54.704Z,2.30
2023-02-25T11:51:25.868Z,2.00
2023-02-25T11:52:31.503Z,2.45
2023-02-25T11:53:53.658Z,1.70
2023-02-25T11:55:15.948Z,1.90
2023-02-25T11:56:28.564Z,2.90
2023-02-25T11:57:41.088Z,2.17
2023-02-25T11:58:47.213Z,2.70
2023-02-25T11:59:59.234Z,2.10
2023-02-25T12:01:10.523Z,2.15
2023-02-25T12:02:14.650Z,3.77
2023-02-25T12:03:21.350Z,2.00
2023-02-25T12:04:33.114Z,1.77
2023-02-25T12:05:48.344Z,1.98
2023-02-25T12:07:02.456Z,2.20
2023-02-25T12:08:13.674Z,2.60
2023-02-25T12:09:19.631Z,1.90
2023-02-25T12:10:34.525Z,1.70
2023-02-25T12:11:40.845Z,1.80
2023-02-25T12:12:44.548Z,1.90
2023-02-25T12:13:56.374Z,1.27
2023-02-25T12:14:59.401Z,2.03
2023-02-25T12:16:20.719Z,2.22
2023-02-25T12:17:37.015Z,1.62
2023-02-25T12:18:39.678Z,1.65
2023-02-25T12:20:01.110Z,1.73
2023-02-25T12:21:03.912Z,2.00
2023-02-25T12:22:27.203Z,2.30
2023-02-25T12:23:33.198Z,2.30
2023-02-25T12:24:47.694Z,2.20
2023-02-25T12:25:53.251Z,3.17
2023-02-25T12:26:58.704Z,2.20
2023-02-25T12:28:10.343Z,3.00
2023-02-25T12:29:24.944Z,2.53
2023-02-25T12:30:46.446Z,2.28
2023-02-25T12:32:08.641Z,1.70
2023-02-25T12:33:19.953Z,1.60
2023-02-25T12:34:28.801Z,1.60
2023-02-25T12:35:49.794Z,1.40
2023-02-25T12:36:55.683Z,1.70
2023-02-25T12:38:19.484Z,1.50
2023-02-25T12:39:21.900Z,1.87
2023-02-25T12:40:40.047Z,1.85
2023-02-25T12:41:42.968Z,2.10
2023-02-25T12:43:04.563Z,1.65
2023-02-25T12:44:13.364Z,1.98
2023-02-25T12:45:16.116Z,1.85
2023-02-25T12:46:35.067Z,3.25
2023-02-25T12:47:53.568Z,3.70
2023-02-25T12:48:59.288Z,9.00
2023-02-25T12:50:14.252Z,5.17
2023-02-25T12:51:28.779Z,3.03
2023-02-25T12:52:49.982Z,3.47
2023-02-25T12:54:02.116Z,3.35
2023-02-25T12:55:13.980Z,3.03
2023-02-25T12:56:36.724Z,4.55
2023-02-25T12:58:16.698Z,6.15
2023-02-25T12:59:54.594Z,2.62
2023-02-25T13:01:06.722Z,1.90
2023-02-25T13:02:12.429Z,2.28
2023-02-25T13:03:27.844Z,1.63
2023-02-25T13:04:39.305Z,2.00
2023-02-25T13:05:50.824Z,2.33
2023-02-25T13:07:14.591Z,2.03
2023-02-25T13:08:30.477Z,1.70
2023-02-25T13:09:35.674Z,1.40
2023-02-25T13:10:38.721Z,1.40
2023-02-25T13:12:09.366Z,1.33
2023-02-25T13:13:14.946Z,2.30
2023-02-25T13:14:24.974Z,2.28
2023-02-25T13:15:54.010Z,2.30
2023-02-25T13:17:14.373Z,1.80
2023-02-25T13:18:25.729Z,2.12
2023-02-25T13:19:37.569Z,2.42
2023-02-25T13:20:40.410Z,2.37
2023-02-25T13:21:51.778Z,2.12
2023-02-25T13:23:03.762Z,1.98
2023-02-25T13:24:25.137Z,1.92
2023-02-25T13:25:48.568Z,2.28
2023-02-25T13:27:09.997Z,3.15
2023-02-25T13:28:13.294Z,2.40
2023-02-25T13:29:34.703Z,2.30
2023-02-25T13:30:59.625Z,2.53
2023-02-25T13:32:21.902Z,1.70
2023-02-25T13:33:59.020Z,1.65
2023-02-25T13:35:21.408Z,1.45
2023-02-25T13:36:43.020Z,2.00
2023-02-25T13:38:04.915Z,1.70
2023-02-25T13:39:26.184Z,2.00
2023-02-25T13:40:32.105Z,2.78
2023-02-25T13:41:52.997Z,2.23
2023-02-25T13:42:59.131Z,2.80
2023-02-25T13:44:20.438Z,1.90
2023-02-25T13:45:30.118Z,1.87
2023-02-25T13:46:47.662Z,1.67
2023-02-25T13:47:57.321Z,1.80
2023-02-25T13:49:18.279Z,1.45
2023-02-25T13:50:27.304Z,3.15
2023-02-25T13:51:50.254Z,2.00
2023-02-25T13:53:06.930Z,2.53
2023-02-25T13:54:27.786Z,2.17
2023-02-25T13:55:33.339Z,3.20
2023-02-25T13:56:54.719Z,4.05
2023-02-25T13:58:03.481Z,3.70
2023-02-25T13:59:15.765Z,5.82
2023-02-25T14:00:34.970Z,4.72
2023-02-25T14:01:57.115Z,2.90
2023-02-25T14:03:05.519Z,2.58
2023-02-25T14:04:11.476Z,1.92
2023-02-25T14:05:23.671Z,1.40
2023-02-25T14:06:30.134Z,2.00
2023-02-25T14:07:39.072Z,1.63
2023-02-25T14:08:42.097Z,1.35
2023-02-25T14:09:47.636Z,1.23
2023-02-25T14:11:08.078Z,1.67
2023-02-25T14:12:13.898Z,1.42
2023-02-25T14:13:25.583Z,1.23
2023-02-25T14:14:36.506Z,1.30
2023-02-25T14:15:45.239Z,1.20
2023-02-25T14:17:08.100Z,1.23
2023-02-25T14:18:20.469Z,1.30
2023-02-25T14:19:37.240Z,1.47
2023-02-25T14:20:46.657Z,2.20
2023-02-25T14:21:52.643Z,1.75
2023-02-25T14:22:55.502Z,1.60
2023-02-25T14:24:13.058Z,1.85
2023-02-25T14:25:20.075Z,1.83
2023-02-25T14:26:25.546Z,2.03
2023-02-25T14:27:29.151Z,1.40
2023-02-25T14:28:38.119Z,1.58
2023-02-25T14:30:00.376Z,1.60
2023-02-25T14:31:09.613Z,1.70
2023-02-25T14:32:24.253Z,2.55
2023-02-25T14:33:42.564Z,2.60
2023-02-25T14:35:06.495Z,3.10